Time;durP1;ratioP1;P1;durP2;ratioP2;P2;SDS_P1;SDS_P2;PMS_P1;PMS_P2;Temp;Humidity;BMP_temperature;BMP_pressure;BME280_temperature;BME280_humidity;BME280_pressure;Samples;Min_cycle;Max_cycle;Signal;HPM_P1;HPM_P2
2022/12/30 00:01:38;;;;;;;6.07;1.70;;;;;;;;;;5055091;28;20009;-86
2022/12/30 00:04:03;;;;;;;16.23;2.37;;;;;;;;;;5053545;28;20067;-86
2022/12/30 00:06:28;;;;;;;12.07;1.73;;;;;;;;;;5054591;28;20028;-85
2022/12/30 00:08:56;;;;;;;10.87;1.57;;;;;;;;;;5053547;28;20524;-86
2022/12/30 00:11:25;;;;;;;16.93;2.00;;;;;;;;;;5050966;28;20074;-86
2022/12/30 00:33:21;;;;;;;17.80;1.93;;;;;;;;;;5054596;28;20031;-85
2022/12/30 00:35:46;;;;;;;8.13;1.67;;;;;;;;;;5052846;28;20532;-86
2022/12/30 00:38:11;;;;;;;16.10;2.13;;;;;;;;;;5052998;28;20061;-85
2022/12/30 00:40:36;;;;;;;11.90;2.03;;;;;;;;;;5052705;28;20120;-86
2022/12/30 00:43:10;;;;;;;10.00;1.63;;;;;;;;;;5052963;28;20361;-85
2022/12/30 00:45:38;;;;;;;11.97;2.00;;;;;;;;;;5052606;28;20095;-85
2022/12/30 00:56:15;;;;;;;12.03;1.87;;;;;;;;;;5054352;28;20423;-86
2022/12/30 00:58:40;;;;;;;11.10;2.00;;;;;;;;;;5051338;28;20029;-85
2022/12/30 01:01:06;;;;;;;8.83;1.53;;;;;;;;;;5053009;28;20021;-85
2022/12/30 01:03:31;;;;;;;13.87;2.63;;;;;;;;;;5052511;28;20055;-85
2022/12/30 01:05:56;;;;;;;9.07;1.90;;;;;;;;;;5052339;28;20021;-86
2022/12/30 01:08:21;;;;;;;10.77;1.70;;;;;;;;;;5052352;28;20044;-86
2022/12/30 01:10:46;;;;;;;11.10;1.90;;;;;;;;;;5052290;28;20021;-85
2022/12/30 01:13:12;;;;;;;11.13;2.93;;;;;;;;;;5051027;28;20017;-86
2022/12/30 01:15:37;;;;;;;12.83;1.90;;;;;;;;;;5051647;28;20021;-85
2022/12/30 01:18:02;;;;;;;13.30;2.10;;;;;;;;;;5053453;28;20021;-86
2022/12/30 01:20:27;;;;;;;8.40;1.40;;;;;;;;;;5051987;28;20029;-86
2022/12/30 01:22:53;;;;;;;18.60;2.00;;;;;;;;;;5052020;28;20009;-86
2022/12/30 01:25:18;;;;;;;16.03;1.77;;;;;;;;;;5052609;28;20040;-86
2022/12/30 01:27:43;;;;;;;15.50;2.10;;;;;;;;;;5051963;28;20012;-85
2022/12/30 01:30:09;;;;;;;9.93;1.90;;;;;;;;;;5050622;28;20028;-86
2022/12/30 01:32:36;;;;;;;12.57;1.77;;;;;;;;;;5052042;28;20036;-86
2022/12/30 01:35:02;;;;;;;12.40;1.83;;;;;;;;;;5039291;28;20021;-85
2022/12/30 01:37:27;;;;;;;12.27;2.07;;;;;;;;;;5051730;28;20090;-85
2022/12/30 01:39:52;;;;;;;11.03;1.57;;;;;;;;;;5051515;28;20720;-85
2022/12/30 01:42:28;;;;;;;11.63;1.70;;;;;;;;;;5051623;28;20380;-85
2022/12/30 01:45:00;;;;;;;7.17;1.60;;;;;;;;;;5052014;28;20460;-85
2022/12/30 01:47:31;;;;;;;21.47;2.20;;;;;;;;;;5051561;28;20468;-85
2022/12/30 01:50:03;;;;;;;10.73;1.53;;;;;;;;;;5052765;28;20045;-86
2022/12/30 01:52:28;;;;;;;;;;;;;;;;;;5053133;28;20437;-85
2022/12/30 01:54:56;;;;;;;16.10;1.77;;;;;;;;;;5050795;28;19920;-86
2022/12/30 01:57:21;;;;;;;14.07;2.23;;;;;;;;;;5051471;28;20266;-86
2022/12/30 01:59:47;;;;;;;11.20;1.67;;;;;;;;;;5051564;28;20052;-86
2022/12/30 02:02:12;;;;;;;7.93;1.73;;;;;;;;;;5052445;28;20147;-86
2022/12/30 02:04:38;;;;;;;13.13;2.77;;;;;;;;;;5051308;28;20396;-86
2022/12/30 02:07:03;;;;;;;12.13;1.83;;;;;;;;;;5050989;28;20021;-86
2022/12/30 02:09:29;;;;;;;10.37;1.53;;;;;;;;;;5052551;28;20027;-86
2022/12/30 02:11:55;;;;;;;16.30;1.90;;;;;;;;;;5052568;28;20115;-86
2022/12/30 02:14:21;;;;;;;10.07;2.07;;;;;;;;;;5050992;28;20048;-86
2022/12/30 02:16:55;;;;;;;13.00;1.80;;;;;;;;;;5050488;28;20362;-86
2022/12/30 02:19:40;;;;;;;14.10;2.30;;;;;;;;;;5050406;28;20373;-85
2022/12/30 02:22:17;;;;;;;15.40;1.90;;;;;;;;;;5051002;28;20469;-85
2022/12/30 02:24:48;;;;;;;11.50;1.77;;;;;;;;;;5051088;28;20031;-85
2022/12/30 02:27:32;;;;;;;11.07;1.93;;;;;;;;;;5051189;28;20075;-86
2022/12/30 02:30:12;;;;;;;16.17;2.00;;;;;;;;;;5052265;28;20025;-85
2022/12/30 02:32:56;;;;;;;10.17;2.03;;;;;;;;;;5052371;28;20376;-85
2022/12/30 02:35:26;;;;;;;9.43;1.70;;;;;;;;;;5050904;28;20033;-85
2022/12/30 02:38:06;;;;;;;15.73;1.77;;;;;;;;;;5050896;28;20031;-85
2022/12/30 02:46:17;;;;;;;15.10;1.50;;;;;;;;;;5052633;28;20365;-86
2022/12/30 02:48:45;;;;;;;6.63;1.60;;;;;;;;;;5049869;28;20017;-85
2022/12/30 02:53:54;;;;;;;9.93;1.60;;;;;;;;;;5038930;28;20028;-85
2022/12/30 02:56:19;;;;;;;10.07;1.50;;;;;;;;;;5050611;28;20021;-86
2022/12/30 02:58:48;;;;;;;18.27;1.90;;;;;;;;;;5051879;28;20040;-85
2022/12/30 03:04:29;;;;;;;16.00;1.90;;;;;;;;;;5052248;28;20071;-86
2022/12/30 03:07:03;;;;;;;9.33;1.30;;;;;;;;;;5051263;28;20102;-86
2022/12/30 03:11:12;;;;;;;12.60;1.60;;;;;;;;;;5050450;28;20020;-85
2022/12/30 03:12:30;;;;;;;3.10;1.10;;;;;;;;;;5051845;28;20027;-86
2022/12/30 03:15:02;;;;;;;11.73;1.30;;;;;;;;;;5050606;28;20013;-86
2022/12/30 03:17:30;;;;;;;10.82;1.73;;;;;;;;;;5051183;28;20035;-86
2022/12/30 03:19:57;;;;;;;9.20;1.95;;;;;;;;;;5055475;28;20036;-86
2022/12/30 03:27:53;;;;;;;8.30;1.38;;;;;;;;;;5055823;28;20059;-86
2022/12/30 03:30:19;;;;;;;8.07;1.60;;;;;;;;;;5054139;28;20048;-85
2022/12/30 03:32:44;;;;;;;22.23;2.30;;;;;;;;;;5054099;28;20017;-84
2022/12/30 03:35:10;;;;;;;10.23;1.87;;;;;;;;;;5055509;28;20023;-85
2022/12/30 03:37:47;;;;;;;8.32;1.42;;;;;;;;;;5052625;28;20025;-84
2022/12/30 03:40:21;;;;;;;11.10;1.60;;;;;;;;;;5052132;28;20079;-86
2022/12/30 03:42:47;;;;;;;15.05;1.83;;;;;;;;;;5052872;28;20460;-86
2022/12/30 03:45:12;;;;;;;22.08;2.00;;;;;;;;;;5053834;28;20472;-86
2022/12/30 03:47:38;;;;;;;9.82;1.73;;;;;;;;;;5053823;28;20087;-86
2022/12/30 03:50:03;;;;;;;17.90;2.05;;;;;;;;;;5053724;28;20017;-86
2022/12/30 03:52:28;;;;;;;13.57;2.17;;;;;;;;;;5052867;28;20025;-85
2022/12/30 03:54:53;;;;;;;9.38;1.67;;;;;;;;;;5053524;28;20070;-85
2022/12/30 03:57:19;;;;;;;9.88;1.42;;;;;;;;;;5053100;28;20112;-86
2022/12/30 03:59:44;;;;;;;8.20;1.55;;;;;;;;;;5053419;28;20472;-86
2022/12/30 04:02:09;;;;;;;9.13;2.13;;;;;;;;;;5053595;28;20016;-86
2022/12/30 04:04:34;;;;;;;11.52;1.80;;;;;;;;;;5053455;28;20017;-86
2022/12/30 04:07:00;;;;;;;14.95;2.15;;;;;;;;;;5052557;28;20025;-86
2022/12/30 04:09:25;;;;;;;10.57;1.67;;;;;;;;;;5053252;28;20025;-86
2022/12/30 04:11:50;;;;;;;6.82;1.35;;;;;;;;;;5053042;28;20503;-86
2022/12/30 04:14:16;;;;;;;14.50;1.63;;;;;;;;;;5053315;28;20024;-86
2022/12/30 04:16:41;;;;;;;11.50;1.92;;;;;;;;;;5053005;28;20112;-86
2022/12/30 04:19:06;;;;;;;10.65;2.22;;;;;;;;;;5052999;28;20395;-86
2022/12/30 04:21:32;;;;;;;8.60;1.75;;;;;;;;;;5050719;28;20031;-86
2022/12/30 04:23:57;;;;;;;16.52;2.35;;;;;;;;;;5054483;28;20453;-86
2022/12/30 04:26:22;;;;;;;7.55;1.73;;;;;;;;;;5053180;28;20436;-86
2022/12/30 04:28:47;;;;;;;17.58;1.88;;;;;;;;;;5052675;28;20017;-86
2022/12/30 04:31:12;;;;;;;16.55;2.22;;;;;;;;;;5052189;28;20017;-86
2022/12/30 04:33:38;;;;;;;8.38;1.45;;;;;;;;;;5053025;28;20388;-86
2022/12/30 04:36:03;;;;;;;12.85;2.63;;;;;;;;;;5052814;28;20013;-86
2022/12/30 04:38:28;;;;;;;12.82;1.95;;;;;;;;;;5052851;28;20326;-86
2022/12/30 04:40:53;;;;;;;7.55;1.38;;;;;;;;;;5052750;28;20414;-86
2022/12/30 04:43:18;;;;;;;11.65;2.00;;;;;;;;;;5052690;28;20456;-85
2022/12/30 04:45:44;;;;;;;15.30;2.00;;;;;;;;;;5051497;28;20440;-85
2022/12/30 04:48:09;;;;;;;10.77;1.92;;;;;;;;;;5052516;28;20116;-86
2022/12/30 04:50:34;;;;;;;11.65;1.92;;;;;;;;;;5052215;28;20024;-85
2022/12/30 04:53:00;;;;;;;13.00;2.20;;;;;;;;;;5052324;28;20017;-85
2022/12/30 04:55:25;;;;;;;14.27;2.08;;;;;;;;;;5052290;28;20449;-85
2022/12/30 04:57:50;;;;;;;12.25;1.80;;;;;;;;;;5052154;28;20031;-85
2022/12/30 05:00:15;;;;;;;9.18;1.92;;;;;;;;;;5052470;28;20103;-86
2022/12/30 05:02:40;;;;;;;12.35;2.08;;;;;;;;;;5051532;28;20108;-86
2022/12/30 05:05:06;;;;;;;10.85;1.77;;;;;;;;;;5052221;28;20036;-86
2022/12/30 05:07:32;;;;;;;17.73;2.38;;;;;;;;;;5052307;28;20052;-86
2022/12/30 05:09:57;;;;;;;14.82;2.05;;;;;;;;;;5052160;28;20380;-86
2022/12/30 05:12:22;;;;;;;8.63;1.95;;;;;;;;;;5053712;28;20024;-86
2022/12/30 05:14:47;;;;;;;9.60;1.30;;;;;;;;;;5052164;28;20033;-86
2022/12/30 05:17:12;;;;;;;9.18;1.88;;;;;;;;;;5051241;28;20123;-86
2022/12/30 05:19:38;;;;;;;12.57;1.80;;;;;;;;;;5051414;28;20040;-86
2022/12/30 05:22:03;;;;;;;5.70;1.65;;;;;;;;;;5051873;28;20013;-86
2022/12/30 05:27:12;;;;;;;2.70;0.65;;;;;;;;;;5053454;28;20027;-86
2022/12/30 05:29:37;;;;;;;11.98;1.73;;;;;;;;;;5051905;28;20029;-86
2022/12/30 05:32:02;;;;;;;7.40;1.90;;;;;;;;;;5051835;28;20380;-86
2022/12/30 05:34:28;;;;;;;8.23;2.40;;;;;;;;;;5051067;28;20025;-86
2022/12/30 05:36:53;;;;;;;8.50;1.75;;;;;;;;;;5051618;28;20064;-86
2022/12/30 05:39:18;;;;;;;8.38;1.80;;;;;;;;;;5051732;28;20115;-86
2022/12/30 05:41:43;;;;;;;6.57;1.70;;;;;;;;;;5050847;28;20031;-86
2022/12/30 05:44:08;;;;;;;12.65;1.80;;;;;;;;;;5051454;28;20365;-86
2022/12/30 05:46:34;;;;;;;7.28;1.50;;;;;;;;;;5051400;28;20041;-85
2022/12/30 05:48:59;;;;;;;8.27;1.25;;;;;;;;;;5051106;28;20528;-85
2022/12/30 05:51:24;;;;;;;5.05;0.95;;;;;;;;;;5047666;28;20422;-86
2022/12/30 05:53:49;;;;;;;7.72;1.65;;;;;;;;;;5042356;28;20045;-86
2022/12/30 05:56:14;;;;;;;17.33;2.40;;;;;;;;;;5051050;28;20056;-86
2022/12/30 05:58:40;;;;;;;7.28;1.70;;;;;;;;;;5051202;28;20025;-86
2022/12/30 06:01:05;;;;;;;10.32;2.05;;;;;;;;;;5051249;28;20032;-86
2022/12/30 06:03:30;;;;;;;12.00;2.08;;;;;;;;;;5051283;28;20017;-86
2022/12/30 06:06:00;;;;;;;7.80;1.60;;;;;;;;;;5050334;28;20056;-86
2022/12/30 06:08:25;;;;;;;7.28;1.40;;;;;;;;;;5051419;28;20385;-86
2022/12/30 06:10:50;;;;;;;5.60;1.40;;;;;;;;;;5051265;28;20038;-86
2022/12/30 06:13:16;;;;;;;7.93;1.52;;;;;;;;;;5052361;28;20396;-86
2022/12/30 06:15:41;;;;;;;11.57;1.85;;;;;;;;;;5051179;28;20048;-86
2022/12/30 06:18:06;;;;;;;7.57;1.60;;;;;;;;;;5050735;28;20037;-86
2022/12/30 06:20:34;;;;;;;7.35;1.42;;;;;;;;;;5050854;28;20025;-85
2022/12/30 06:23:00;;;;;;;8.75;1.60;;;;;;;;;;5051033;28;20017;-86
2022/12/30 06:25:25;;;;;;;9.43;2.20;;;;;;;;;;5050761;28;20013;-85
2022/12/30 06:27:50;;;;;;;10.18;1.73;;;;;;;;;;5050991;28;20067;-85
2022/12/30 06:30:15;;;;;;;5.82;1.33;;;;;;;;;;5052180;28;20098;-86
2022/12/30 06:32:41;;;;;;;7.28;1.27;;;;;;;;;;5050827;28;20101;-86
2022/12/30 06:35:07;;;;;;;9.38;1.65;;;;;;;;;;5050128;28;20031;-85
2022/12/30 06:37:32;;;;;;;6.03;1.05;;;;;;;;;;5050397;28;20048;-86
2022/12/30 06:39:57;;;;;;;9.05;2.47;;;;;;;;;;5050669;28;20032;-86
2022/12/30 06:42:22;;;;;;;5.82;1.02;;;;;;;;;;5050519;28;20017;-86
2022/12/30 06:44:48;;;;;;;7.20;1.90;;;;;;;;;;5051920;28;20095;-86
2022/12/30 06:47:13;;;;;;;7.90;1.60;;;;;;;;;;5062875;28;20112;-86
2022/12/30 06:49:38;;;;;;;5.90;1.50;;;;;;;;;;5051539;28;20023;-85
2022/12/30 06:52:03;;;;;;;7.03;1.35;;;;;;;;;;5052272;28;20303;-86
2022/12/30 06:54:28;;;;;;;8.48;1.58;;;;;;;;;;5054514;28;20017;-86
2022/12/30 06:56:54;;;;;;;6.38;1.30;;;;;;;;;;5054746;28;20032;-86
2022/12/30 06:59:19;;;;;;;6.25;1.38;;;;;;;;;;5054495;28;20468;-85
2022/12/30 07:01:44;;;;;;;9.43;1.70;;;;;;;;;;5051664;28;20366;-85
2022/12/30 07:04:09;;;;;;;9.50;1.25;;;;;;;;;;5048308;28;20025;-86
2022/12/30 07:06:35;;;;;;;7.57;1.08;;;;;;;;;;5054337;28;20017;-85
2022/12/30 07:09:00;;;;;;;2.35;0.55;;;;;;;;;;5054184;28;20024;-85
2022/12/30 07:11:25;;;;;;;4.18;1.20;;;;;;;;;;5053989;28;20123;-85
2022/12/30 07:13:50;;;;;;;8.48;1.33;;;;;;;;;;5053967;28;20025;-85
2022/12/30 07:16:15;;;;;;;5.28;1.13;;;;;;;;;;5052086;28;20116;-85
2022/12/30 07:18:41;;;;;;;2.42;0.98;;;;;;;;;;5053633;28;20497;-85
2022/12/30 07:21:06;;;;;;;3.33;0.70;;;;;;;;;;5053733;28;20013;-85
2022/12/30 07:23:31;;;;;;;7.35;1.15;;;;;;;;;;5053326;28;20021;-85
2022/12/30 07:25:56;;;;;;;5.10;1.30;;;;;;;;;;5055219;28;20346;-85
2022/12/30 07:28:21;;;;;;;6.07;1.13;;;;;;;;;;5053644;28;20017;-86
2022/12/30 07:30:47;;;;;;;7.72;1.23;;;;;;;;;;5054099;28;20025;-86
2022/12/30 07:33:12;;;;;;;9.73;1.42;;;;;;;;;;5051258;28;20045;-85
2022/12/30 07:35:37;;;;;;;1.20;0.70;;;;;;;;;;5051993;28;20021;-84
2022/12/30 07:38:02;;;;;;;7.18;1.27;;;;;;;;;;5047921;28;20027;-85
2022/12/30 07:40:27;;;;;;;3.85;0.85;;;;;;;;;;5050713;28;20124;-84
2022/12/30 07:42:53;;;;;;;3.28;0.85;;;;;;;;;;5053198;28;20119;-85
2022/12/30 07:45:18;;;;;;;5.07;1.20;;;;;;;;;;5052407;28;20021;-85
2022/12/30 07:47:43;;;;;;;5.38;1.00;;;;;;;;;;5052200;28;20469;-86
2022/12/30 07:50:10;;;;;;;3.80;1.13;;;;;;;;;;5047222;28;20479;-85
2022/12/30 07:52:35;;;;;;;9.93;0.95;;;;;;;;;;5053728;28;20013;-88
2022/12/30 07:55:00;;;;;;;10.55;1.30;;;;;;;;;;5049351;28;20116;-89
2022/12/30 07:57:27;;;;;;;2.15;0.40;;;;;;;;;;5043381;28;20036;-89
2022/12/30 07:59:52;;;;;;;3.28;0.90;;;;;;;;;;5052359;28;20033;-89
2022/12/30 08:02:17;;;;;;;4.57;0.95;;;;;;;;;;5044461;28;20017;-89
2022/12/30 08:04:42;;;;;;;3.00;1.20;;;;;;;;;;5052407;28;20031;-89
2022/12/30 08:07:07;;;;;;;3.97;0.75;;;;;;;;;;5047916;28;20016;-91
2022/12/30 08:09:35;;;;;;;3.83;0.88;;;;;;;;;;5047091;28;20028;-83
2022/12/30 08:12:00;;;;;;;0.22;0.20;;;;;;;;;;5045619;28;20380;-84
2022/12/30 08:14:25;;;;;;;5.80;1.23;;;;;;;;;;5079112;28;20029;-85
2022/12/30 08:16:50;;;;;;;2.50;0.80;;;;;;;;;;5044701;28;20468;-85
2022/12/30 08:19:15;;;;;;;3.88;0.73;;;;;;;;;;5046658;28;20028;-86
2022/12/30 08:21:41;;;;;;;8.15;0.57;;;;;;;;;;5051290;28;20013;-85
2022/12/30 08:24:06;;;;;;;2.40;0.70;;;;;;;;;;5048253;28;20475;-86
2022/12/30 08:26:31;;;;;;;8.68;0.65;;;;;;;;;;5053319;28;20048;-88
2022/12/30 08:28:56;;;;;;;5.55;0.80;;;;;;;;;;5051101;28;20330;-88
2022/12/30 08:31:23;;;;;;;3.38;1.52;;;;;;;;;;5043266;28;20025;-85
2022/12/30 08:33:48;;;;;;;1.77;0.82;;;;;;;;;;5047573;28;20041;-85
2022/12/30 08:36:15;;;;;;;3.80;1.45;;;;;;;;;;5045701;28;20023;-83
2022/12/30 08:38:42;;;;;;;7.00;0.60;;;;;;;;;;5050211;28;20100;-86
2022/12/30 08:41:10;;;;;;;0.22;0.15;;;;;;;;;;5073711;28;20017;-82
2022/12/30 08:43:35;;;;;;;4.53;0.80;;;;;;;;;;5044960;28;20086;-82
2022/12/30 08:46:01;;;;;;;3.25;0.50;;;;;;;;;;5047159;28;20020;-81
2022/12/30 08:48:26;;;;;;;5.63;0.98;;;;;;;;;;5046782;28;20064;-83
2022/12/30 08:50:53;;;;;;;3.50;1.13;;;;;;;;;;5044566;28;20029;-83
2022/12/30 08:53:18;;;;;;;3.63;0.40;;;;;;;;;;5044201;28;20036;-82
2022/12/30 08:55:44;;;;;;;5.35;1.13;;;;;;;;;;5050140;28;20025;-81
2022/12/30 08:58:09;;;;;;;4.13;0.73;;;;;;;;;;5042764;28;20044;-79
2022/12/30 09:00:34;;;;;;;1.73;0.30;;;;;;;;;;5046377;28;20036;-83
2022/12/30 09:02:59;;;;;;;2.78;0.45;;;;;;;;;;5048986;28;20009;-83
2022/12/30 09:05:24;;;;;;;4.57;0.98;;;;;;;;;;5048785;28;20021;-83
2022/12/30 09:07:50;;;;;;;2.05;0.75;;;;;;;;;;5048615;28;20028;-82
2022/12/30 09:10:15;;;;;;;2.97;0.65;;;;;;;;;;5049590;28;20147;-83
2022/12/30 09:12:40;;;;;;;6.70;1.17;;;;;;;;;;5049239;28;20681;-83
2022/12/30 09:15:06;;;;;;;3.83;0.63;;;;;;;;;;5049517;28;20467;-83
2022/12/30 09:17:31;;;;;;;6.03;0.70;;;;;;;;;;5047866;28;20029;-82
2022/12/30 09:19:56;;;;;;;1.98;0.85;;;;;;;;;;5046131;28;20116;-83
2022/12/30 09:22:21;;;;;;;4.53;1.05;;;;;;;;;;5048920;28;20032;-84
2022/12/30 09:24:47;;;;;;;1.67;0.60;;;;;;;;;;5049584;28;20021;-82
2022/12/30 09:27:12;;;;;;;5.80;0.93;;;;;;;;;;5051411;28;20437;-83
2022/12/30 09:29:37;;;;;;;4.93;0.80;;;;;;;;;;5048672;28;20043;-82
2022/12/30 09:32:02;;;;;;;0.80;0.30;;;;;;;;;;5049853;28;20028;-82
2022/12/30 09:34:28;;;;;;;1.13;0.52;;;;;;;;;;5050421;28;20028;-82
2022/12/30 09:36:53;;;;;;;3.13;0.70;;;;;;;;;;5044077;28;20024;-83
2022/12/30 09:39:26;;;;;;;2.28;0.90;;;;;;;;;;5049323;28;20033;-83
2022/12/30 09:44:53;;;;;;;5.47;0.68;;;;;;;;;;5048490;28;20436;-82
2022/12/30 09:47:27;;;;;;;9.60;1.17;;;;;;;;;;5044634;28;20104;-82
2022/12/30 09:49:56;;;;;;;5.57;0.85;;;;;;;;;;5077531;28;20032;-81
2022/12/30 09:52:32;;;;;;;9.55;1.05;;;;;;;;;;5045204;28;20028;-82
2022/12/30 09:55:04;;;;;;;1.60;0.32;;;;;;;;;;5046854;28;20430;-83
2022/12/30 09:57:32;;;;;;;7.57;0.85;;;;;;;;;;5045375;28;20028;-82
2022/12/30 10:00:03;;;;;;;1.85;0.85;;;;;;;;;;5046198;28;21400;-83
2022/12/30 10:02:32;;;;;;;3.47;0.45;;;;;;;;;;5079645;28;20040;-83
2022/12/30 10:04:58;;;;;;;0.40;0.40;;;;;;;;;;5048499;28;20013;-83
2022/12/30 10:07:30;;;;;;;7.40;0.73;;;;;;;;;;5049233;28;20565;-84
2022/12/30 10:10:09;;;;;;;3.83;0.80;;;;;;;;;;5046939;28;20528;-84
2022/12/30 10:12:53;;;;;;;5.80;0.93;;;;;;;;;;5045333;28;20478;-83
2022/12/30 10:15:34;;;;;;;1.85;0.50;;;;;;;;;;5045886;28;20112;-83
2022/12/30 10:18:02;;;;;;;6.03;1.10;;;;;;;;;;5045523;28;20032;-82
2022/12/30 10:20:41;;;;;;;8.90;1.40;;;;;;;;;;5045658;28;20407;-82
2022/12/30 10:23:15;;;;;;;1.90;0.40;;;;;;;;;;5038380;28;20486;-82
2022/12/30 10:25:59;;;;;;;5.70;0.60;;;;;;;;;;5048087;28;20021;-83
2022/12/30 10:28:29;;;;;;;7.65;1.00;;;;;;;;;;5063049;28;20025;-83
2022/12/30 10:30:54;;;;;;;0.30;0.25;;;;;;;;;;5048269;28;20116;-83
2022/12/30 10:33:20;;;;;;;6.53;0.93;;;;;;;;;;5048024;28;20108;-83
2022/12/30 10:35:47;;;;;;;0.10;0.10;;;;;;;;;;5045912;28;20025;-82
2022/12/30 10:38:14;;;;;;;6.32;0.90;;;;;;;;;;5046856;28;20111;-82
2022/12/30 10:40:51;;;;;;;1.45;0.28;;;;;;;;;;5043124;28;20839;-83
2022/12/30 10:43:19;;;;;;;1.38;0.30;;;;;;;;;;5046504;28;20024;-81
2022/12/30 10:45:59;;;;;;;6.20;0.95;;;;;;;;;;5047745;28;20159;-81
2022/12/30 10:48:33;;;;;;;1.88;0.30;;;;;;;;;;5046028;28;20108;-82
2022/12/30 10:50:58;;;;;;;4.05;0.30;;;;;;;;;;5045197;28;20017;-81
2022/12/30 10:53:26;;;;;;;8.07;0.80;;;;;;;;;;5042737;28;20044;-82
2022/12/30 10:55:51;;;;;;;5.88;1.52;;;;;;;;;;5048035;28;20021;-81
2022/12/30 10:58:25;;;;;;;7.03;0.95;;;;;;;;;;5046431;28;20110;-81
2022/12/30 11:00:50;;;;;;;1.83;0.50;;;;;;;;;;5044227;28;20040;-82
2022/12/30 11:03:24;;;;;;;3.88;0.80;;;;;;;;;;5046443;28;20017;-82
2022/12/30 11:05:50;;;;;;;4.40;0.85;;;;;;;;;;5047609;28;20029;-82
2022/12/30 11:08:23;;;;;;;0.90;0.38;;;;;;;;;;5046663;28;20480;-81
2022/12/30 11:11:05;;;;;;;7.43;0.25;;;;;;;;;;5078710;28;20108;-82
2022/12/30 11:16:15;;;;;;;8.05;0.52;;;;;;;;;;5050193;28;20035;-82
2022/12/30 11:18:43;;;;;;;0.40;0.17;;;;;;;;;;5050248;28;20193;-82
2022/12/30 11:21:09;;;;;;;7.85;1.02;;;;;;;;;;5049413;28;20016;-82
2022/12/30 11:23:35;;;;;;;2.53;0.47;;;;;;;;;;5049275;28;20013;-81
2022/12/30 11:26:02;;;;;;;10.55;1.08;;;;;;;;;;5049257;28;20017;-82
2022/12/30 11:28:31;;;;;;;0.22;0.10;;;;;;;;;;5047932;28;20040;-82
2022/12/30 11:30:58;;;;;;;2.38;0.45;;;;;;;;;;5047565;28;20017;-82
2022/12/30 11:33:25;;;;;;;5.35;1.02;;;;;;;;;;5047876;28;20106;-82
2022/12/30 11:35:50;;;;;;;2.50;0.60;;;;;;;;;;5049098;28;20519;-82
2022/12/30 11:38:31;;;;;;;0.77;0.28;;;;;;;;;;5048813;28;20060;-82
2022/12/30 11:40:57;;;;;;;5.28;0.75;;;;;;;;;;5050607;28;20021;-82
2022/12/30 11:43:22;;;;;;;1.02;0.35;;;;;;;;;;5052013;28;20025;-82
2022/12/30 11:46:00;;;;;;;6.25;0.90;;;;;;;;;;5047755;28;20151;-81
2022/12/30 11:48:30;;;;;;;1.05;0.25;;;;;;;;;;5052782;28;20028;-82
2022/12/30 11:50:57;;;;;;;3.70;0.22;;;;;;;;;;5052909;28;20028;-82
2022/12/30 11:53:24;;;;;;;0.88;0.25;;;;;;;;;;5053032;28;20029;-82
2022/12/30 11:55:50;;;;;;;2.45;0.30;;;;;;;;;;5051368;28;20029;-83
2022/12/30 11:58:16;;;;;;;5.47;0.80;;;;;;;;;;5051988;28;20443;-83
2022/12/30 12:00:41;;;;;;;2.15;0.35;;;;;;;;;;5054060;28;20033;-82
2022/12/30 12:03:12;;;;;;;3.60;0.77;;;;;;;;;;5050700;28;20021;-82
2022/12/30 12:05:42;;;;;;;4.28;0.77;;;;;;;;;;5053830;28;20025;-82
2022/12/30 12:08:26;;;;;;;2.00;0.45;;;;;;;;;;5052541;28;20100;-82
2022/12/30 12:10:56;;;;;;;7.88;1.15;;;;;;;;;;5049371;28;20120;-82
2022/12/30 12:13:40;;;;;;;0.90;0.08;;;;;;;;;;5038049;28;20037;-81
2022/12/30 12:16:06;;;;;;;4.95;1.13;;;;;;;;;;5052347;28;20032;-81
2022/12/30 12:18:35;;;;;;;3.78;1.05;;;;;;;;;;5051954;28;20032;-81
2022/12/30 12:21:01;;;;;;;4.13;0.68;;;;;;;;;;5051280;28;20113;-81
2022/12/30 12:23:44;;;;;;;5.75;1.08;;;;;;;;;;5051941;28;20075;-81
2022/12/30 12:26:16;;;;;;;2.60;0.80;;;;;;;;;;5050897;28;20013;-81
2022/12/30 12:28:42;;;;;;;3.60;0.70;;;;;;;;;;5053668;28;20041;-80
2022/12/30 12:31:17;;;;;;;7.40;0.68;;;;;;;;;;5050271;28;20045;-80
2022/12/30 12:33:52;;;;;;;1.98;0.60;;;;;;;;;;5049388;28;20032;-82
2022/12/30 12:36:33;;;;;;;2.60;0.90;;;;;;;;;;5051821;28;20067;-82
2022/12/30 12:39:06;;;;;;;3.97;1.00;;;;;;;;;;5055687;28;20579;-81
2022/12/30 12:41:31;;;;;;;;;;;;;;;;;;5052006;28;20024;-81
2022/12/30 12:43:56;;;;;;;4.30;0.47;;;;;;;;;;5051851;28;19915;-82
2022/12/30 12:46:33;;;;;;;0.93;0.43;;;;;;;;;;5051922;28;20642;-83
2022/12/30 12:49:04;;;;;;;0.75;0.30;;;;;;;;;;5051552;28;20017;-82
2022/12/30 12:51:48;;;;;;;3.80;0.63;;;;;;;;;;5051903;28;20501;-82
2022/12/30 12:54:22;;;;;;;3.28;0.75;;;;;;;;;;5053368;28;20242;-83
2022/12/30 12:56:50;;;;;;;0.60;0.40;;;;;;;;;;5050597;28;20025;-82
2022/12/30 12:59:25;;;;;;;2.03;0.35;;;;;;;;;;5051783;28;20027;-83
2022/12/30 13:02:09;;;;;;;1.50;0.73;;;;;;;;;;5035001;28;20013;-83
2022/12/30 13:04:53;;;;;;;10.85;0.88;;;;;;;;;;5034555;28;20492;-83
2022/12/30 13:07:36;;;;;;;8.07;0.63;;;;;;;;;;5051742;28;20013;-83
2022/12/30 13:10:22;;;;;;;1.45;0.30;;;;;;;;;;5050487;28;20020;-82
2022/12/30 13:13:02;;;;;;;4.47;0.50;;;;;;;;;;5050946;28;20086;-82
2022/12/30 13:15:42;;;;;;;1.40;0.30;;;;;;;;;;5034957;28;20033;-82
2022/12/30 13:18:13;;;;;;;0.35;0.22;;;;;;;;;;5046039;28;20029;-82
2022/12/30 13:20:44;;;;;;;0.35;0.20;;;;;;;;;;5051352;28;20035;-82
2022/12/30 13:23:11;;;;;;;2.50;0.68;;;;;;;;;;5051037;28;20021;-82
2022/12/30 13:25:40;;;;;;;1.83;0.52;;;;;;;;;;5051804;28;20032;-82
2022/12/30 13:28:06;;;;;;;0.40;0.25;;;;;;;;;;5051533;28;20098;-82
2022/12/30 13:30:38;;;;;;;0.85;0.32;;;;;;;;;;5051325;28;20456;-83
2022/12/30 13:33:03;;;;;;;1.65;0.40;;;;;;;;;;5049774;28;20484;-83
2022/12/30 13:35:38;;;;;;;3.72;0.40;;;;;;;;;;5048786;28;20110;-83
2022/12/30 13:38:12;;;;;;;2.45;0.70;;;;;;;;;;5047415;28;20029;-83
2022/12/30 13:40:47;;;;;;;1.90;0.82;;;;;;;;;;5041702;28;20028;-83
2022/12/30 13:43:24;;;;;;;3.63;0.45;;;;;;;;;;5036870;28;20481;-83
2022/12/30 13:45:53;;;;;;;1.67;0.43;;;;;;;;;;5049468;28;20017;-84
2022/12/30 13:48:20;;;;;;;0.68;0.20;;;;;;;;;;5050953;28;20028;-83
2022/12/30 13:50:46;;;;;;;0.43;0.25;;;;;;;;;;5051150;28;20440;-84
2022/12/30 13:53:28;;;;;;;0.28;0.20;;;;;;;;;;5044573;28;20187;-84
2022/12/30 13:55:53;;;;;;;1.10;0.50;;;;;;;;;;5043627;28;20021;-83
2022/12/30 13:58:27;;;;;;;1.55;0.50;;;;;;;;;;5036620;28;20020;-83
2022/12/30 14:01:19;;;;;;;3.50;0.65;;;;;;;;;;5048301;28;20029;-83
2022/12/30 14:03:45;;;;;;;0.70;0.40;;;;;;;;;;5040485;28;20033;-80
2022/12/30 14:06:27;;;;;;;0.40;0.40;;;;;;;;;;5047793;28;20479;-81
2022/12/30 14:09:11;;;;;;;0.13;0.13;;;;;;;;;;5044244;28;20116;-80
2022/12/30 14:11:36;;;;;;;1.92;0.35;;;;;;;;;;5046040;28;20465;-79
2022/12/30 14:14:20;;;;;;;2.10;0.60;;;;;;;;;;5048503;28;20032;-79
2022/12/30 14:16:48;;;;;;;1.52;0.60;;;;;;;;;;5050000;28;20520;-79
2022/12/30 14:19:32;;;;;;;2.90;0.57;;;;;;;;;;5049253;28;20036;-79
2022/12/30 14:21:59;;;;;;;2.20;0.50;;;;;;;;;;5050488;28;20041;-79
2022/12/30 14:24:30;;;;;;;0.77;0.50;;;;;;;;;;5048926;28;20453;-80
2022/12/30 14:26:56;;;;;;;1.10;0.20;;;;;;;;;;5048945;28;20028;-80
2022/12/30 14:29:26;;;;;;;1.33;0.52;;;;;;;;;;5050568;28;20498;-79
2022/12/30 14:31:53;;;;;;;0.65;0.30;;;;;;;;;;5050012;28;20032;-79
2022/12/30 14:34:26;;;;;;;0.73;0.40;;;;;;;;;;5046435;28;20037;-78
2022/12/30 14:37:14;;;;;;;0.95;0.30;;;;;;;;;;5049709;28;20040;-81
2022/12/30 14:39:39;;;;;;;1.50;0.55;;;;;;;;;;5047447;28;20590;-81
2022/12/30 14:42:19;;;;;;;0.98;0.30;;;;;;;;;;5049717;28;20051;-82
2022/12/30 14:44:49;;;;;;;0.75;0.45;;;;;;;;;;5046876;28;20411;-82
2022/12/30 14:47:34;;;;;;;1.13;0.40;;;;;;;;;;5048161;28;20360;-83
2022/12/30 14:50:00;;;;;;;0.30;0.25;;;;;;;;;;5070767;28;20025;-82
2022/12/30 14:52:26;;;;;;;1.75;0.30;;;;;;;;;;5047412;28;20024;-83
2022/12/30 14:54:59;;;;;;;1.98;0.43;;;;;;;;;;5050608;28;20101;-82
2022/12/30 14:57:25;;;;;;;0.40;0.30;;;;;;;;;;5049903;28;20025;-83
2022/12/30 14:59:50;;;;;;;1.23;0.77;;;;;;;;;;5049510;28;20025;-82
2022/12/30 15:02:16;;;;;;;3.05;0.82;;;;;;;;;;5046567;28;20440;-81
2022/12/30 15:04:41;;;;;;;0.65;0.50;;;;;;;;;;5048160;28;20024;-82
2022/12/30 15:07:06;;;;;;;1.60;0.73;;;;;;;;;;5049973;28;20644;-81
2022/12/30 15:09:32;;;;;;;2.95;1.50;;;;;;;;;;5051393;28;20020;-81
2022/12/30 15:11:59;;;;;;;0.68;0.30;;;;;;;;;;5050076;28;20055;-81
2022/12/30 15:14:25;;;;;;;1.83;1.30;;;;;;;;;;5051715;28;20065;-81
2022/12/30 15:17:08;;;;;;;0.95;0.50;;;;;;;;;;5053620;28;20053;-80
2022/12/30 15:19:36;;;;;;;0.60;0.40;;;;;;;;;;5051497;28;20020;-81
2022/12/30 15:22:01;;;;;;;1.48;0.63;;;;;;;;;;5053318;28;20013;-80
2022/12/30 15:24:26;;;;;;;1.00;0.50;;;;;;;;;;5059425;28;20027;-81
2022/12/30 15:26:53;;;;;;;1.05;0.70;;;;;;;;;;5056846;28;20344;-82
2022/12/30 15:29:28;;;;;;;1.48;0.82;;;;;;;;;;5054880;28;20029;-81
2022/12/30 15:31:58;;;;;;;0.50;0.40;;;;;;;;;;5053401;28;20020;-81
2022/12/30 15:34:29;;;;;;;0.80;0.40;;;;;;;;;;5051791;28;20096;-81
2022/12/30 15:36:55;;;;;;;0.57;0.40;;;;;;;;;;5050938;28;20045;-81
2022/12/30 15:39:22;;;;;;;1.27;0.40;;;;;;;;;;5051822;28;20068;-80
2022/12/30 15:41:49;;;;;;;1.17;0.80;;;;;;;;;;5053020;28;20111;-81